Dumas, TX

12:36 AM CST on February 07, 2016 (GMT -0600)
Moore County | | Change Station
CLOSE
Current Station
Airport
Location: Dumas,
Elevation: 3704 ft
Nearby Weather Stations

Elev 3704 ft 35.86 °N, 102.01 °W | Updated 21 minutes ago

Clear
Clear
28 °F
Feels Like 20 °F
N
9
Wind Variable Wind from SSW

Today
High -- | Low -- °F
--% Chance of Precip.
Yesterday
High -- | Low -- °F
Precip. -- in
Pressure 30.12 in
Visibility 10.0 miles
Clouds Clear
Windchill 20 °F
Dew Point 11 °F
Humidity 48%
Rainfall 0.00 in
Snow Depth Not available.
7:43 AM 6:21 PM
Waning Crescent, 2% visible
METAR KDUX 070615Z AUTO 20008KT 10SM CLR M02/M12 A3012 RMK AO2 T10201116
Pressure 30.12 in
Visibility 10.0 miles
Clouds Clear
Windchill 20 °F
Dew Point 11 °F
Humidity 48%
Rainfall 0.00 in
Snow Depth Not available.
7:43 AM 6:21 PM
Waning Crescent, 2% visible
METAR KDUX 070615Z AUTO 20008KT 10SM CLR M02/M12 A3012 RMK AO2 T10201116

10-Day Weather Forecast

Almanac

Astronomy

Feb. 07, 2016 Rise Set
Actual Time
Civil Twilight
Nautical Twilight
Astronomical Twilight
Moon
Length of Visible Light
Length of Day
Tomorrow will be .
, % of the Moon is Illuminated

Today's Extremes

State Highs State Lows

Community

WunderPhotos

Upload Photos

1,891,174 photos uploaded!

WunderBlog® & News

Nearby

Air Quality

  Air Quality AQ Index Pollutant
Not available.

Snow Depth

Station Depth Elevation

Earthquake Activity

City Distance Mag. Time & Date
Minimum magnitude displayed is 2.5.

Coastal Water Temperatures

Place Temperature

Stations

Nearby Weather Stations

Station Location Temp. Windchill Dew Point Humidity Wind Precip. Elev Updated Type
                   

Watches & Warnings

There are currently no watches in effect.